PPS weather

Puerto Princesa Airport
Puerto Princesa City, Palawan Province, Philippines

Public forecast

Using degrees Celsius for public forecast. Weather courtesy of forecast.io.

Current aviation weather report (METAR) for Puerto Princesa Airport

Retrieved 2020/07/13 10:00 UTC (43 minutes ago):

RPVP 131000Z 35004KT 9999 SCT019 BKN080 BKN240 29/24 Q1008 RMK A2977

Aviation forecast (TAF) for Puerto Princesa Airport

Retrieved 2020/07/13 06:00 UTC (5 hours ago):

TAF RPVP 130500Z 1306/1406 15006KT 9999 FEW019 BKN080 TEMPO 1306/1312 18008KT 9000 -TSRA FEW017CB SCT020 OVC080 TEMPO 1312/1318 25006KT 9000 -SHRA FEW017CB SCT020 BKN080